sensor_id;sensor_type;location;lat;lon;timestamp;P1;durP1;ratioP1;P2;durP2;ratioP2
38085;SDS011;23896;50.678;10.924;2023-04-08T13:04:01;16.63;;;11.57;;
38085;SDS011;23896;50.678;10.924;2023-04-08T13:06:27;19.20;;;12.85;;
38085;SDS011;23896;50.678;10.924;2023-04-08T13:08:55;18.73;;;13.50;;
38085;SDS011;23896;50.678;10.924;2023-04-08T13:12:01;18.55;;;13.18;;
38085;SDS011;23896;50.678;10.924;2023-04-08T13:15:17;20.25;;;14.85;;
38085;SDS011;23896;50.678;10.924;2023-04-08T13:18:14;20.83;;;15.43;;
38085;SDS011;23896;50.678;10.924;2023-04-08T13:21:15;22.13;;;16.58;;
38085;SDS011;23896;50.678;10.924;2023-04-08T13:24:20;24.50;;;16.92;;
38085;SDS011;23896;50.678;10.924;2023-04-08T13:29:58;24.73;;;14.80;;
38085;SDS011;23896;50.678;10.924;2023-04-08T13:33:05;18.60;;;12.80;;
38085;SDS011;23896;50.678;10.924;2023-04-08T13:35:54;20.25;;;14.13;;
38085;SDS011;23896;50.678;10.924;2023-04-08T13:38:56;17.52;;;12.95;;
38085;SDS011;23896;50.678;10.924;2023-04-08T13:41:29;17.10;;;12.95;;
38085;SDS011;23896;50.678;10.924;2023-04-08T13:44:45;20.05;;;13.10;;
38085;SDS011;23896;50.678;10.924;2023-04-08T13:47:48;18.13;;;13.68;;
38085;SDS011;23896;50.678;10.924;2023-04-08T13:50:35;17.75;;;13.65;;
38085;SDS011;23896;50.678;10.924;2023-04-08T13:53:08;20.88;;;14.70;;
38085;SDS011;23896;50.678;10.924;2023-04-08T13:55:54;24.00;;;15.18;;
38085;SDS011;23896;50.678;10.924;2023-04-08T13:58:24;20.20;;;15.15;;
38085;SDS011;23896;50.678;10.924;2023-04-08T14:14:11;21.20;;;15.50;;
38085;SDS011;23896;50.678;10.924;2023-04-08T14:16:56;21.42;;;15.63;;
38085;SDS011;23896;50.678;10.924;2023-04-08T14:20:18;23.35;;;15.82;;
38085;SDS011;23896;50.678;10.924;2023-04-08T14:23:28;20.08;;;15.43;;
38085;SDS011;23896;50.678;10.924;2023-04-08T14:26:37;20.98;;;14.75;;
38085;SDS011;23896;50.678;10.924;2023-04-08T15:32:41;22.92;;;17.15;;
38085;SDS011;23896;50.678;10.924;2023-04-08T15:35:15;24.30;;;17.75;;
38085;SDS011;23896;50.678;10.924;2023-04-08T15:37:50;20.85;;;16.30;;
38085;SDS011;23896;50.678;10.924;2023-04-08T15:40:22;24.25;;;17.88;;
38085;SDS011;23896;50.678;10.924;2023-04-08T15:43:29;24.10;;;17.60;;
38085;SDS011;23896;50.678;10.924;2023-04-08T15:45:57;21.95;;;17.13;;
38085;SDS011;23896;50.678;10.924;2023-04-08T15:48:33;24.13;;;17.67;;
38085;SDS011;23896;50.678;10.924;2023-04-08T15:51:05;21.00;;;16.27;;
38085;SDS011;23896;50.678;10.924;2023-04-08T15:53:37;23.73;;;18.00;;
38085;SDS011;23896;50.678;10.924;2023-04-08T15:56:03;24.25;;;16.75;;
38085;SDS011;23896;50.678;10.924;2023-04-08T15:58:37;24.45;;;17.25;;
38085;SDS011;23896;50.678;10.924;2023-04-08T16:01:09;23.83;;;17.05;;
38085;SDS011;23896;50.678;10.924;2023-04-08T16:03:40;23.27;;;17.98;;
38085;SDS011;23896;50.678;10.924;2023-04-08T16:06:07;25.95;;;18.25;;
38085;SDS011;23896;50.678;10.924;2023-04-08T16:08:46;25.02;;;17.73;;
38085;SDS011;23896;50.678;10.924;2023-04-08T16:11:17;23.40;;;17.83;;
38085;SDS011;23896;50.678;10.924;2023-04-08T16:13:46;24.00;;;17.50;;
38085;SDS011;23896;50.678;10.924;2023-04-08T16:16:24;23.30;;;17.55;;
38085;SDS011;23896;50.678;10.924;2023-04-08T16:18:54;25.80;;;17.92;;
38085;SDS011;23896;50.678;10.924;2023-04-08T16:21:21;22.95;;;17.73;;
38085;SDS011;23896;50.678;10.924;2023-04-08T16:23:49;24.40;;;18.17;;
38085;SDS011;23896;50.678;10.924;2023-04-08T16:26:21;23.70;;;16.20;;
38085;SDS011;23896;50.678;10.924;2023-04-08T16:28:48;23.80;;;16.42;;
38085;SDS011;23896;50.678;10.924;2023-04-08T16:31:16;24.48;;;17.98;;
38085;SDS011;23896;50.678;10.924;2023-04-08T16:33:42;23.35;;;16.75;;
38085;SDS011;23896;50.678;10.924;2023-04-08T16:36:08;25.02;;;17.88;;
38085;SDS011;23896;50.678;10.924;2023-04-08T16:38:40;25.23;;;17.77;;
38085;SDS011;23896;50.678;10.924;2023-04-08T16:41:21;24.52;;;17.63;;
38085;SDS011;23896;50.678;10.924;2023-04-08T16:44:05;26.05;;;17.60;;
38085;SDS011;23896;50.678;10.924;2023-04-08T16:46:34;27.25;;;18.83;;
38085;SDS011;23896;50.678;10.924;2023-04-08T16:49:23;24.38;;;17.55;;
38085;SDS011;23896;50.678;10.924;2023-04-08T16:51:50;25.25;;;18.38;;
38085;SDS011;23896;50.678;10.924;2023-04-08T16:54:16;27.55;;;19.73;;
38085;SDS011;23896;50.678;10.924;2023-04-08T16:56:43;27.23;;;18.98;;
38085;SDS011;23896;50.678;10.924;2023-04-08T16:59:12;28.02;;;18.73;;
38085;SDS011;23896;50.678;10.924;2023-04-08T17:01:40;30.65;;;18.88;;
38085;SDS011;23896;50.678;10.924;2023-04-08T17:04:09;25.40;;;18.55;;
38085;SDS011;23896;50.678;10.924;2023-04-08T17:06:39;29.33;;;19.05;;
38085;SDS011;23896;50.678;10.924;2023-04-08T17:09:15;30.73;;;20.27;;
38085;SDS011;23896;50.678;10.924;2023-04-08T17:11:52;28.17;;;19.20;;
38085;SDS011;23896;50.678;10.924;2023-04-08T17:14:22;28.25;;;20.23;;
38085;SDS011;23896;50.678;10.924;2023-04-08T17:16:56;29.70;;;19.30;;
38085;SDS011;23896;50.678;10.924;2023-04-08T17:19:34;29.58;;;19.60;;
38085;SDS011;23896;50.678;10.924;2023-04-08T17:25:12;31.27;;;20.13;;
38085;SDS011;23896;50.678;10.924;2023-04-08T17:28:02;29.15;;;20.42;;
38085;SDS011;23896;50.678;10.924;2023-04-08T17:30:33;28.73;;;20.60;;
38085;SDS011;23896;50.678;10.924;2023-04-08T17:33:49;31.88;;;20.85;;
38085;SDS011;23896;50.678;10.924;2023-04-08T17:36:15;30.23;;;21.05;;
38085;SDS011;23896;50.678;10.924;2023-04-08T17:38:43;31.20;;;21.95;;
38085;SDS011;23896;50.678;10.924;2023-04-08T17:41:19;28.40;;;20.50;;
38085;SDS011;23896;50.678;10.924;2023-04-08T17:43:48;30.50;;;21.08;;
38085;SDS011;23896;50.678;10.924;2023-04-08T17:46:28;33.28;;;22.27;;
38085;SDS011;23896;50.678;10.924;2023-04-08T17:49:05;33.97;;;22.65;;
38085;SDS011;23896;50.678;10.924;2023-04-08T17:51:32;32.10;;;22.20;;
38085;SDS011;23896;50.678;10.924;2023-04-08T17:54:01;32.50;;;23.27;;
38085;SDS011;23896;50.678;10.924;2023-04-08T17:56:32;33.97;;;24.23;;
38085;SDS011;23896;50.678;10.924;2023-04-08T17:59:04;35.40;;;24.85;;
38085;SDS011;23896;50.678;10.924;2023-04-08T18:01:35;32.70;;;22.55;;
38085;SDS011;23896;50.678;10.924;2023-04-08T18:04:28;33.78;;;22.88;;
38085;SDS011;23896;50.678;10.924;2023-04-08T18:07:02;33.88;;;24.30;;
38085;SDS011;23896;50.678;10.924;2023-04-08T19:44:03;33.20;;;21.83;;
38085;SDS011;23896;50.678;10.924;2023-04-08T19:46:48;30.90;;;20.42;;
